createdAt,value
2022-11-01T05:00:36.537Z,20.40
2022-11-01T05:11:41.322Z,17.30
2022-11-01T05:22:41.192Z,13.40
2022-11-01T05:33:41.080Z,15.50
2022-11-01T05:44:40.940Z,13.20
2022-11-01T05:55:40.817Z,12.20
2022-11-01T06:06:40.696Z,10.10
2022-11-01T06:17:40.574Z,8.90
2022-11-01T06:28:40.452Z,5.80
2022-11-01T06:39:40.319Z,8.80
2022-11-01T06:50:40.197Z,6.80
2022-11-01T07:01:40.236Z,5.70
2022-11-01T07:12:39.958Z,6.80
2022-11-01T07:23:39.856Z,5.30
2022-11-01T07:34:39.701Z,6.30
2022-11-01T07:45:39.576Z,5.70
2022-11-01T07:56:39.462Z,5.00
2022-11-01T08:07:39.339Z,5.00
2022-11-01T08:18:39.213Z,5.10
2022-11-01T08:29:39.103Z,6.20
2022-11-01T08:40:38.962Z,3.70
2022-11-01T08:51:38.838Z,4.10
2022-11-01T09:02:38.805Z,4.90
2022-11-01T09:13:38.591Z,3.40
2022-11-01T09:24:38.489Z,4.60
2022-11-01T09:35:38.344Z,4.30
2022-11-01T09:46:38.252Z,3.90
2022-11-01T09:57:38.104Z,2.90
2022-11-01T10:08:37.980Z,2.90
2022-11-01T10:19:38.513Z,1.70
2022-11-01T10:30:37.746Z,2.50
2022-11-01T10:41:37.619Z,1.30
2022-11-01T10:52:37.491Z,0.80
2022-11-01T11:03:37.373Z,1.90
2022-11-01T11:14:37.259Z,1.20
2022-11-01T11:25:37.151Z,0.80
2022-11-01T11:36:37.106Z,1.40
2022-11-01T11:47:36.878Z,2.70
2022-11-01T11:58:36.751Z,1.70
2022-11-01T12:09:36.645Z,1.40
2022-11-01T12:20:36.505Z,1.10
2022-11-01T12:31:36.441Z,1.20
2022-11-01T12:42:36.253Z,0.80
2022-11-01T12:53:36.133Z,1.20
2022-11-01T13:04:36.007Z,1.60
2022-11-01T13:15:35.891Z,2.40
2022-11-01T13:26:35.765Z,1.20
2022-11-01T13:37:35.633Z,1.30
2022-11-01T13:48:35.506Z,1.50
2022-11-01T13:59:35.384Z,1.20
2022-11-01T14:10:35.266Z,1.20
2022-11-01T14:21:35.157Z,1.10
2022-11-01T14:32:35.045Z,1.80
2022-11-01T14:43:34.900Z,0.70
2022-11-01T14:54:34.772Z,0.80
2022-11-01T15:05:34.659Z,0.70
2022-11-01T15:16:34.540Z,1.30
2022-11-01T15:27:34.417Z,1.10
2022-11-01T15:38:34.300Z,1.50
2022-11-01T15:49:34.213Z,1.60
2022-11-01T16:00:34.071Z,1.60
2022-11-01T16:11:33.922Z,2.50
2022-11-01T16:22:33.814Z,1.90
2022-11-01T16:33:33.683Z,0.90
2022-11-01T16:44:33.552Z,1.30
2022-11-01T16:55:34.935Z,1.80
2022-11-01T17:06:38.655Z,1.60
2022-11-01T17:17:33.269Z,1.60
2022-11-01T17:28:33.072Z,1.70
2022-11-01T17:39:32.943Z,2.70
2022-11-01T17:50:32.813Z,2.10
2022-11-01T18:01:32.818Z,2.50
2022-11-01T18:12:32.571Z,2.70
2022-11-01T18:23:32.454Z,2.40
2022-11-01T18:34:32.334Z,3.70
2022-11-01T18:45:45.460Z,2.80
2022-11-01T18:56:32.073Z,2.00
2022-11-01T19:07:57.095Z,2.00
2022-11-01T19:18:31.855Z,2.20
2022-11-01T19:29:31.705Z,2.70
2022-11-01T19:40:31.582Z,2.20
2022-11-01T19:51:31.465Z,2.80
2022-11-01T20:02:31.460Z,6.60
2022-11-01T20:13:31.248Z,5.00
2022-11-01T20:24:31.113Z,5.50
2022-11-01T20:35:30.978Z,6.40
2022-11-01T20:46:30.907Z,9.30
2022-11-01T20:57:30.730Z,6.70
2022-11-01T21:08:30.621Z,4.60
2022-11-01T21:19:30.490Z,3.70
2022-11-01T21:30:30.358Z,3.80
2022-11-01T21:41:30.251Z,2.60
2022-11-01T21:52:30.112Z,2.90
